Bithav — PCAQ — position and weather

sailwx.info

Track history (hours):
 
Tides and Currents Weather Stations Pressure Air Temp Water Temp Dewpoint Dewpoint Depression Visibility Wind Speed Wind Dir Waves Ship Positions

Bithav

Last reported at 2017-Nov-20 00:30 UTC. Time now 2017-Nov-20 02:15 UTC.
Position N 63°13' E 007°49'.

Length 115 m; draft 5 m.

Type: Ship. MMSI: 246697000.

Date/timePositionNaut miles runAvg speedWind from/ knotsBaromVisibWave heightAir tempDewpointWater temp
2017-Nov-20 00:30N 63°13' E 007°49'611.3
2017-Nov-20 00:00N 63°15' E 008°01'713.9
2017-Nov-19 23:30N 63°18' E 008°14'713.6
2017-Nov-19 23:00N 63°23' E 008°26'714.4
2017-Nov-19 22:30N 63°26' E 008°40'714.2
2017-Nov-19 22:00N 63°28' E 008°55'713.4
2017-Nov-19 21:30N 63°31' E 009°09'713.2
2017-Nov-19 21:00N 63°34' E 009°22'714.0
2017-Nov-19 20:30N 63°38' E 009°35'510.9
2017-Nov-19 20:00N 63°37' E 009°48'714.2
2017-Nov-19 19:30N 63°31' E 009°54'713.1
2017-Nov-19 19:00N 63°29' E 010°08'612.5
2017-Nov-19 18:30N 63°29' E 010°22'612.3
2017-Nov-19 18:00N 63°33' E 010°31'714.0
2017-Nov-19 17:30N 63°38' E 010°42'714.6
2017-Nov-19 17:00N 63°43' E 010°55'713.9
2017-Nov-19 16:30N 63°49' E 011°03'613.0
2017-Nov-19 16:00N 63°55' E 011°06'713.9
2017-Nov-19 15:30N 63°59' E 011°19'4 7.4
2017-Nov-19 14:56N 64°01' E 011°28'0 0.0
2017-Nov-19 13:55N 64°01' E 011°28'0 0.0
2017-Nov-19 13:01N 64°01' E 011°28'0 0.0
2017-Nov-19 12:43N 64°01' E 011°28'0 0.0
2017-Nov-19 11:00N 64°01' E 011°28'0 0.0
2017-Nov-19 10:21N 64°01' E 011°28'0 0.0
2017-Nov-19 09:57N 64°01' E 011°28'0 0.0
2017-Nov-19 09:26N 64°01' E 011°28'0 0.0
2017-Nov-19 08:56N 64°01' E 011°28'0 0.0
2017-Nov-19 08:14N 64°01' E 011°28'0 0.0
2017-Nov-19 07:35N 64°01' E 011°28'0 0.0
2017-Nov-19 07:30N 64°01' E 011°28'0 0.6
2017-Nov-19 07:00N 64°00' E 011°28'510.8
2017-Nov-19 06:30N 63°59' E 011°16'713.3
2017-Nov-19 06:00N 63°54' E 011°05'612.7
2017-Nov-19 05:30N 63°48' E 011°03'612.9
2017-Nov-19 05:00N 63°43' E 010°54'612.9
2017-Nov-19 04:30N 63°39' E 010°43'713.2
2017-Nov-19 04:00N 63°35' E 010°31'510.4
2017-Nov-19 03:30N 63°32' E 010°22'3 5.4
2017-Nov-19 03:00N 63°31' E 010°17'713.6
2017-Nov-19 02:30N 63°29' E 010°02'611.7
2017-Nov-19 02:00N 63°33' E 009°52'612.8
2017-Nov-19 01:30N 63°39' E 009°46'510.8
2017-Nov-19 01:00N 63°38' E 009°34'713.6
2017-Nov-19 00:30N 63°34' E 009°22'714.2
2017-Nov-19 00:00N 63°30' E 009°07'713.6
2017-Nov-18 23:30N 63°28' E 008°54'713.6
2017-Nov-18 23:00N 63°25' E 008°39'613.3
2017-Nov-18 22:30N 63°22' E 008°26'713.8
2017-Nov-18 22:00N 63°18' E 008°14'713.9
2017-Nov-18 21:30N 63°14' E 008°01'713.9
2017-Nov-18 21:01N 63°11' E 007°48'611.1
2017-Nov-18 20:30N 63°06' E 007°43'2 3.4
2017-Nov-18 20:00N 63°05' E 007°46'0 0.0
2017-Nov-18 19:30N 63°05' E 007°46'0 0.0
2017-Nov-18 19:00N 63°05' E 007°46'0 0.0
2017-Nov-18 18:29N 63°05' E 007°46'0 0.0
2017-Nov-18 17:59N 63°05' E 007°46'0 0.0
2017-Nov-18 17:29N 63°05' E 007°46'0 0.0
2017-Nov-18 16:59N 63°05' E 007°46'0 0.0
2017-Nov-18 16:29N 63°05' E 007°46'0 0.0
2017-Nov-18 15:55N 63°05' E 007°46'0 0.0
2017-Nov-18 15:28N 63°05' E 007°46'0 0.0
2017-Nov-18 14:58N 63°05' E 007°46'0 0.0
2017-Nov-18 14:28N 63°05' E 007°46'0 0.0
2017-Nov-18 13:57N 63°05' E 007°46'0 0.0
2017-Nov-18 13:30N 63°05' E 007°46'0 0.0
2017-Nov-18 13:00N 63°05' E 007°46'0 0.0
2017-Nov-18 12:30N 63°05' E 007°46'0 0.0
2017-Nov-18 12:00N 63°05' E 007°46'0 0.0
2017-Nov-18 11:29N 63°05' E 007°46'0 0.0
2017-Nov-18 10:59N 63°05' E 007°46'0 0.0
2017-Nov-18 10:29N 63°05' E 007°46'0 0.0
2017-Nov-18 09:59N 63°05' E 007°46'0 0.0
2017-Nov-18 09:30N 63°05' E 007°46'1 1.4
2017-Nov-18 09:00N 63°06' E 007°45'510.4
2017-Nov-18 08:30N 63°07' E 007°34'612.8
2017-Nov-18 08:00N 63°04' E 007°21'612.5
2017-Nov-18 07:30N 63°03' E 007°07'713.4
2017-Nov-18 07:00N 62°60' E 006°55'713.2
2017-Nov-18 06:30N 62°55' E 006°46'713.6
2017-Nov-18 06:01N 62°49' E 006°38'713.4
2017-Nov-18 05:31N 62°43' E 006°30'713.2
2017-Nov-18 05:00N 62°38' E 006°21'612.1
2017-Nov-18 04:31N 62°34' E 006°12'611.3
2017-Nov-18 04:00N 62°29' E 006°06'510.4
2017-Nov-18 03:30N 62°24' E 006°04'510.4
2017-Nov-18 03:00N 62°18' E 006°03'713.3
2017-Nov-18 02:30N 62°13' E 005°54'713.6
2017-Nov-18 02:00N 62°11' E 005°40'612.2
2017-Nov-18 01:30N 62°12' E 005°27'510.5
2017-Nov-18 01:00N 62°13' E 005°16'611.4
2017-Nov-18 00:30N 62°13' E 005°04'611.2
2017-Nov-18 00:00N 62°07' E 004°60'4 7.4
2017-Nov-17 23:30N 62°04' E 005°04'4 9.0
2017-Nov-17 23:00N 62°01' E 005°09'611.2
2017-Nov-17 22:30N 61°55' E 005°07'611.4
2017-Nov-17 22:00N 61°51' E 005°16'612.5
2017-Nov-17 21:30N 61°47' E 005°06'612.8
2017-Nov-17 21:00N 61°42' E 004°58'612.6
2017-Nov-17 20:30N 61°36' E 004°58'611.5
2017-Nov-17 20:00N 61°32' E 005°06'612.3
2017-Nov-17 19:30N 61°29' E 005°18'611.6
2017-Nov-17 19:00N 61°27' E 005°29'6 0.6
2017-Nov-17 08:26N 61°30' E 005°42'613.3
2017-Nov-17 07:58N 61°27' E 005°30'612.1
2017-Nov-17 07:29N 61°29' E 005°18'613.3
2017-Nov-17 07:00N 61°28' E 005°05'510.1
2017-Nov-17 06:30N 61°23' E 005°01'510.7
2017-Nov-17 06:00N 61°18' E 004°60'5 9.8
2017-Nov-17 05:30N 61°13' E 004°57'612.1
2017-Nov-17 05:00N 61°07' E 005°02'713.1
2017-Nov-17 04:30N 61°02' E 004°55'713.2
2017-Nov-17 04:00N 60°57' E 004°45'612.6
2017-Nov-17 03:30N 60°51' E 004°46'611.7
2017-Nov-17 03:00N 60°45' E 004°47'612.9
2017-Nov-17 02:30N 60°39' E 004°52'613.3
2017-Nov-17 02:00N 60°33' E 004°56'713.2
2017-Nov-17 01:30N 60°27' E 005°02'611.5
2017-Nov-17 01:00N 60°23' E 005°11'1 2.3
2017-Nov-17 00:26N 60°24' E 005°14'0 0.0
2017-Nov-16 23:59N 60°24' E 005°14'0 0.0
2017-Nov-16 23:29N 60°24' E 005°14'0 0.0
2017-Nov-16 22:55N 60°24' E 005°14'0 0.0
2017-Nov-16 22:28N 60°24' E 005°14'0 0.0
2017-Nov-16 21:58N 60°24' E 005°14'0 0.0
2017-Nov-16 21:28N 60°24' E 005°14'0 0.0
2017-Nov-16 20:57N 60°24' E 005°14'0 0.0
2017-Nov-16 20:30N 60°24' E 005°14'0 0.0
2017-Nov-16 20:00N 60°24' E 005°14'0 0.0
2017-Nov-16 19:30N 60°24' E 005°14'0 0.0
2017-Nov-16 19:00N 60°24' E 005°14'0 0.0
2017-Nov-16 18:29N 60°24' E 005°14'0 0.0
2017-Nov-16 17:59N 60°24' E 005°14'0 0.0
2017-Nov-16 17:29N 60°24' E 005°14'0 0.0
2017-Nov-16 16:59N 60°24' E 005°14'0 0.0
2017-Nov-16 16:29N 60°24' E 005°14'0 0.0
2017-Nov-16 15:58N 60°24' E 005°14'0 0.0
2017-Nov-16 15:28N 60°24' E 005°14'0 0.0
2017-Nov-16 14:58N 60°24' E 005°14'0 0.0
2017-Nov-16 14:30N 60°24' E 005°14'0 0.4
2017-Nov-16 14:00N 60°24' E 005°14'2 3.5
2017-Nov-16 13:30N 60°23' E 005°11'611.9
2017-Nov-16 13:00N 60°17' E 005°11'612.7
2017-Nov-16 12:30N 60°11' E 005°10'510.6
2017-Nov-16 12:00N 60°08' E 005°00'612.3
2017-Nov-16 11:30N 60°03' E 004°56'713.3
2017-Nov-16 11:00N 59°56' E 004°53'713.4
2017-Nov-16 10:30N 59°50' E 004°51'713.5
2017-Nov-16 10:00N 59°43' E 004°49'713.5
2017-Nov-16 09:30N 59°36' E 004°47'713.7
2017-Nov-16 09:00N 59°30' E 004°44'47713.1
2017-Nov-14 20:42N 51°39' E 002°25'513.4
2017-Nov-14 20:19N 51°35' E 002°20'513.2
2017-Nov-14 19:57N 51°32' E 002°15'612.8
2017-Nov-14 19:30N 51°27' E 002°09'612.6
2017-Nov-14 19:00N 51°23' E 002°02'612.3
2017-Nov-14 18:30N 51°18' E 001°56'611.6
2017-Nov-14 18:00N 51°14' E 001°50'611.2
2017-Nov-14 17:30N 51°09' E 001°44'510.8
2017-Nov-14 17:00N 51°05' E 001°39'510.9
2017-Nov-14 16:30N 51°01' E 001°33'611.1
2017-Nov-14 16:00N 50°57' E 001°26'611.1
2017-Nov-14 15:29N 50°52' E 001°23'7112.2
2017-Nov-14 09:37N 49°55' E 000°17'112.7
2017-Nov-14 09:30N 49°53' E 000°15'612.9
2017-Nov-14 09:00N 49°49' E 000°09'713.3
2017-Nov-14 08:30N 49°43' E 000°03'713.5
2017-Nov-14 08:00N 49°37' W 000°03'713.2
2017-Nov-14 07:30N 49°31' E 000°00'5 9.9
2017-Nov-14 07:00N 49°29' E 000°07'0 0.0
2017-Nov-14 06:30N 49°29' E 000°07'0 0.0
2017-Nov-14 06:00N 49°29' E 000°07'0 0.0
2017-Nov-14 05:30N 49°29' E 000°07'0 0.0
2017-Nov-14 05:00N 49°29' E 000°07'0 0.0
2017-Nov-14 04:30N 49°29' E 000°07'0 0.0
2017-Nov-14 04:00N 49°29' E 000°07'0 0.0
2017-Nov-14 03:30N 49°29' E 000°07'0 0.1
2017-Nov-14 03:00N 49°29' E 000°07'2 3.2
2017-Nov-14 02:30N 49°29' E 000°05'4 7.8
2017-Nov-14 02:00N 49°28' W 000°01'4 8.2
2017-Nov-14 01:30N 49°26' E 000°05'713.0
2017-Nov-14 01:00N 49°26' E 000°15'713.6
2017-Nov-14 00:31N 49°27' E 000°25'5 9.4
2017-Nov-14 00:00N 49°28' E 000°32'0 0.1
2017-Nov-13 23:30N 49°28' E 000°32'0 0.0
2017-Nov-13 23:00N 49°28' E 000°32'0 0.0
2017-Nov-13 22:29N 49°28' E 000°32'0 0.0
2017-Nov-13 21:59N 49°28' E 000°32'0 0.0
2017-Nov-13 02:00N 49°28' E 000°32'0 0.0
2017-Nov-13 01:29N 49°28' E 000°32'0 0.0
2017-Nov-13 00:59N 49°28' E 000°32'0 0.0
2017-Nov-13 00:29N 49°28' E 000°32'0 0.0
2017-Nov-12 23:59N 49°28' E 000°32'0 0.0
2017-Nov-12 23:28N 49°28' E 000°32'0 0.0
2017-Nov-12 22:58N 49°28' E 000°32'0 0.0
2017-Nov-12 22:28N 49°28' E 000°32'0 0.0
2017-Nov-12 21:58N 49°28' E 000°32'0 0.0
2017-Nov-12 21:28N 49°28' E 000°32'0 0.0
2017-Nov-12 21:00N 49°28' E 000°32'0 0.0
2017-Nov-12 20:30N 49°28' E 000°32'2 4.2
2017-Nov-12 20:00N 49°29' E 000°29'510.2
2017-Nov-12 19:30N 49°27' E 000°23'612.1
2017-Nov-12 19:00N 49°26' E 000°13'713.2
2017-Nov-12 18:30N 49°27' E 000°03'612.0
2017-Nov-12 18:00N 49°28' W 000°05'2 4.6
2017-Nov-12 17:30N 49°26' W 000°08'0 0.6
2017-Nov-12 17:00N 49°26' W 000°08'0 0.8
2017-Nov-12 16:30N 49°26' W 000°07'2 3.3
2017-Nov-12 16:00N 49°24' W 000°08'2 3.2
2017-Nov-12 15:30N 49°26' W 000°07'0 0.2
2017-Nov-12 15:00N 49°26' W 000°07'2 3.2
2017-Nov-12 14:30N 49°24' W 000°08'2 4.1
2017-Nov-12 14:00N 49°26' W 000°07'2 3.4
2017-Nov-12 13:30N 49°28' W 000°06'0 0.3
2017-Nov-12 13:00N 49°28' W 000°06'0 0.2
2017-Nov-12 12:28N 49°28' W 000°06'0 0.3
2017-Nov-12 11:58N 49°28' W 000°06'0 0.1
2017-Nov-12 11:30N 49°28' W 000°06'0 0.0
2017-Nov-12 11:00N 49°28' W 000°06'0 0.0
2017-Nov-12 10:30N 49°28' W 000°06'0 0.0
2017-Nov-12 10:00N 49°28' W 000°06'0 0.2
2017-Nov-12 09:30N 49°28' W 000°06'5 9.3
2017-Nov-12 09:00N 49°33' W 000°08'714.1
2017-Nov-12 08:30N 49°39' W 000°03'714.0
2017-Nov-12 08:00N 49°45' E 000°03'713.9
2017-Nov-12 07:30N 49°50' E 000°10'714.0
2017-Nov-12 07:00N 49°56' E 000°17'4112.5
2017-Nov-12 03:44N 50°31' E 000°50'414.1
2017-Nov-12 03:27N 50°34' E 000°47'511.7
2017-Nov-12 03:00N 50°39' E 000°48'713.9
2017-Nov-12 02:30N 50°44' E 000°57'1414.8
2017-Nov-12 01:34N 50°53' E 001°14'115.5
2017-Nov-12 01:30N 50°53' E 001°15'816.3
2017-Nov-12 01:00N 50°59' E 001°24'816.6
2017-Nov-12 00:30N 51°05' E 001°33'816.5
2017-Nov-12 00:00N 51°11' E 001°42'815.5
2017-Nov-11 23:30N 51°17' E 001°49'714.7
2017-Nov-11 23:01N 51°24' E 001°55'714.2
2017-Nov-11 22:30N 51°29' E 002°03'713.7
2017-Nov-11 22:00N 51°34' E 002°10'713.5
2017-Nov-11 21:28N 51°39' E 002°18'42613.4
2017-Nov-10 13:42N 58°34' E 005°13'313.4
2017-Nov-10 13:30N 58°36' E 005°14'713.4
2017-Nov-10 13:00N 58°43' E 005°17'510.2
2017-Nov-10 12:30N 58°48' E 005°19'611.1
2017-Nov-10 12:00N 58°51' E 005°28'612.3
2017-Nov-10 11:30N 58°57' E 005°33'713.1
2017-Nov-10 11:00N 59°03' E 005°35'612.2
2017-Nov-10 10:30N 59°02' E 005°46'4 7.6
2017-Nov-10 09:58N 58°58' E 005°46'0 0.0
2017-Nov-10 09:28N 58°58' E 005°46'0 0.0
2017-Nov-10 08:58N 58°58' E 005°46'0 0.0
2017-Nov-10 08:28N 58°58' E 005°46'3 6.7
2017-Nov-10 08:00N 58°55' E 005°46'2 4.4
2017-Nov-10 07:30N 58°53' E 005°45'0 0.0
2017-Nov-10 06:59N 58°53' E 005°45'0 0.0
2017-Nov-10 06:29N 58°53' E 005°45'0 0.0
2017-Nov-10 05:59N 58°53' E 005°45'0 0.0
2017-Nov-10 05:29N 58°53' E 005°45'0 0.0
2017-Nov-10 04:59N 58°53' E 005°45'0 0.0
2017-Nov-10 04:28N 58°53' E 005°45'0 0.0
2017-Nov-10 03:58N 58°53' E 005°45'0 0.0
2017-Nov-10 03:28N 58°53' E 005°45'0 0.0
2017-Nov-10 02:58N 58°53' E 005°45'0 0.0
2017-Nov-10 02:31N 58°53' E 005°45'0 0.0
2017-Nov-10 02:00N 58°53' E 005°45'0 0.0
2017-Nov-10 01:30N 58°53' E 005°45'0 0.0
2017-Nov-10 01:00N 58°53' E 005°45'  
Track history (hours):
 
Tides and Currents Weather Stations Pressure Air Temp Water Temp Dewpoint Dewpoint Depression Visibility Wind Speed Wind Dir Waves Ship Positions

Bithav

Last reported at 2017-Nov-20 00:30 UTC. Time now 2017-Nov-20 02:15 UTC.
Position N 63°13' E 007°49'.

Length 115 m; draft 5 m.

Type: Ship. MMSI: 246697000.

Date/timePositionNaut miles runAvg speedWind from/ knotsBaromVisibWave heightAir tempDewpointWater temp
2017-Nov-20 00:30N 63°13' E 007°49'611.3
2017-Nov-20 00:00N 63°15' E 008°01'713.9
2017-Nov-19 23:30N 63°18' E 008°14'713.6
2017-Nov-19 23:00N 63°23' E 008°26'714.4
2017-Nov-19 22:30N 63°26' E 008°40'714.2
2017-Nov-19 22:00N 63°28' E 008°55'713.4
2017-Nov-19 21:30N 63°31' E 009°09'713.2
2017-Nov-19 21:00N 63°34' E 009°22'714.0
2017-Nov-19 20:30N 63°38' E 009°35'510.9
2017-Nov-19 20:00N 63°37' E 009°48'714.2
2017-Nov-19 19:30N 63°31' E 009°54'713.1
2017-Nov-19 19:00N 63°29' E 010°08'612.5
2017-Nov-19 18:30N 63°29' E 010°22'612.3
2017-Nov-19 18:00N 63°33' E 010°31'714.0
2017-Nov-19 17:30N 63°38' E 010°42'714.6
2017-Nov-19 17:00N 63°43' E 010°55'713.9
2017-Nov-19 16:30N 63°49' E 011°03'613.0
2017-Nov-19 16:00N 63°55' E 011°06'713.9
2017-Nov-19 15:30N 63°59' E 011°19'4 7.4
2017-Nov-19 14:56N 64°01' E 011°28'0 0.0
2017-Nov-19 13:55N 64°01' E 011°28'0 0.0
2017-Nov-19 13:01N 64°01' E 011°28'0 0.0
2017-Nov-19 12:43N 64°01' E 011°28'0 0.0
2017-Nov-19 11:00N 64°01' E 011°28'0 0.0
2017-Nov-19 10:21N 64°01' E 011°28'0 0.0
2017-Nov-19 09:57N 64°01' E 011°28'0 0.0
2017-Nov-19 09:26N 64°01' E 011°28'0 0.0
2017-Nov-19 08:56N 64°01' E 011°28'0 0.0
2017-Nov-19 08:14N 64°01' E 011°28'0 0.0
2017-Nov-19 07:35N 64°01' E 011°28'0 0.0
2017-Nov-19 07:30N 64°01' E 011°28'0 0.6
2017-Nov-19 07:00N 64°00' E 011°28'510.8
2017-Nov-19 06:30N 63°59' E 011°16'713.3
2017-Nov-19 06:00N 63°54' E 011°05'612.7
2017-Nov-19 05:30N 63°48' E 011°03'612.9
2017-Nov-19 05:00N 63°43' E 010°54'612.9
2017-Nov-19 04:30N 63°39' E 010°43'713.2
2017-Nov-19 04:00N 63°35' E 010°31'510.4
2017-Nov-19 03:30N 63°32' E 010°22'3 5.4
2017-Nov-19 03:00N 63°31' E 010°17'713.6
2017-Nov-19 02:30N 63°29' E 010°02'611.7
2017-Nov-19 02:00N 63°33' E 009°52'612.8
2017-Nov-19 01:30N 63°39' E 009°46'510.8
2017-Nov-19 01:00N 63°38' E 009°34'713.6
2017-Nov-19 00:30N 63°34' E 009°22'714.2
2017-Nov-19 00:00N 63°30' E 009°07'713.6
2017-Nov-18 23:30N 63°28' E 008°54'713.6
2017-Nov-18 23:00N 63°25' E 008°39'613.3
2017-Nov-18 22:30N 63°22' E 008°26'713.8
2017-Nov-18 22:00N 63°18' E 008°14'713.9
2017-Nov-18 21:30N 63°14' E 008°01'713.9
2017-Nov-18 21:01N 63°11' E 007°48'611.1
2017-Nov-18 20:30N 63°06' E 007°43'2 3.4
2017-Nov-18 20:00N 63°05' E 007°46'0 0.0
2017-Nov-18 19:30N 63°05' E 007°46'0 0.0
2017-Nov-18 19:00N 63°05' E 007°46'0 0.0
2017-Nov-18 18:29N 63°05' E 007°46'0 0.0
2017-Nov-18 17:59N 63°05' E 007°46'0 0.0
2017-Nov-18 17:29N 63°05' E 007°46'0 0.0
2017-Nov-18 16:59N 63°05' E 007°46'0 0.0
2017-Nov-18 16:29N 63°05' E 007°46'0 0.0
2017-Nov-18 15:55N 63°05' E 007°46'0 0.0
2017-Nov-18 15:28N 63°05' E 007°46'0 0.0
2017-Nov-18 14:58N 63°05' E 007°46'0 0.0
2017-Nov-18 14:28N 63°05' E 007°46'0 0.0
2017-Nov-18 13:57N 63°05' E 007°46'0 0.0
2017-Nov-18 13:30N 63°05' E 007°46'0 0.0
2017-Nov-18 13:00N 63°05' E 007°46'0 0.0
2017-Nov-18 12:30N 63°05' E 007°46'0 0.0
2017-Nov-18 12:00N 63°05' E 007°46'0 0.0
2017-Nov-18 11:29N 63°05' E 007°46'0 0.0
2017-Nov-18 10:59N 63°05' E 007°46'0 0.0
2017-Nov-18 10:29N 63°05' E 007°46'0 0.0
2017-Nov-18 09:59N 63°05' E 007°46'0 0.0
2017-Nov-18 09:30N 63°05' E 007°46'1 1.4
2017-Nov-18 09:00N 63°06' E 007°45'510.4
2017-Nov-18 08:30N 63°07' E 007°34'612.8
2017-Nov-18 08:00N 63°04' E 007°21'612.5
2017-Nov-18 07:30N 63°03' E 007°07'713.4
2017-Nov-18 07:00N 62°60' E 006°55'713.2
2017-Nov-18 06:30N 62°55' E 006°46'713.6
2017-Nov-18 06:01N 62°49' E 006°38'713.4
2017-Nov-18 05:31N 62°43' E 006°30'713.2
2017-Nov-18 05:00N 62°38' E 006°21'612.1
2017-Nov-18 04:31N 62°34' E 006°12'611.3
2017-Nov-18 04:00N 62°29' E 006°06'510.4
2017-Nov-18 03:30N 62°24' E 006°04'510.4
2017-Nov-18 03:00N 62°18' E 006°03'713.3
2017-Nov-18 02:30N 62°13' E 005°54'713.6
2017-Nov-18 02:00N 62°11' E 005°40'612.2
2017-Nov-18 01:30N 62°12' E 005°27'510.5
2017-Nov-18 01:00N 62°13' E 005°16'611.4
2017-Nov-18 00:30N 62°13' E 005°04'611.2
2017-Nov-18 00:00N 62°07' E 004°60'4 7.4
2017-Nov-17 23:30N 62°04' E 005°04'4 9.0
2017-Nov-17 23:00N 62°01' E 005°09'611.2
2017-Nov-17 22:30N 61°55' E 005°07'611.4
2017-Nov-17 22:00N 61°51' E 005°16'612.5
2017-Nov-17 21:30N 61°47' E 005°06'612.8
2017-Nov-17 21:00N 61°42' E 004°58'612.6
2017-Nov-17 20:30N 61°36' E 004°58'611.5
2017-Nov-17 20:00N 61°32' E 005°06'612.3
2017-Nov-17 19:30N 61°29' E 005°18'611.6
2017-Nov-17 19:00N 61°27' E 005°29'6 0.6
2017-Nov-17 08:26N 61°30' E 005°42'613.3
2017-Nov-17 07:58N 61°27' E 005°30'612.1
2017-Nov-17 07:29N 61°29' E 005°18'613.3
2017-Nov-17 07:00N 61°28' E 005°05'510.1
2017-Nov-17 06:30N 61°23' E 005°01'510.7
2017-Nov-17 06:00N 61°18' E 004°60'5 9.8
2017-Nov-17 05:30N 61°13' E 004°57'612.1
2017-Nov-17 05:00N 61°07' E 005°02'713.1
2017-Nov-17 04:30N 61°02' E 004°55'713.2
2017-Nov-17 04:00N 60°57' E 004°45'612.6
2017-Nov-17 03:30N 60°51' E 004°46'611.7
2017-Nov-17 03:00N 60°45' E 004°47'612.9
2017-Nov-17 02:30N 60°39' E 004°52'613.3
2017-Nov-17 02:00N 60°33' E 004°56'713.2
2017-Nov-17 01:30N 60°27' E 005°02'611.5
2017-Nov-17 01:00N 60°23' E 005°11'1 2.3
2017-Nov-17 00:26N 60°24' E 005°14'0 0.0
2017-Nov-16 23:59N 60°24' E 005°14'0 0.0
2017-Nov-16 23:29N 60°24' E 005°14'0 0.0
2017-Nov-16 22:55N 60°24' E 005°14'0 0.0
2017-Nov-16 22:28N 60°24' E 005°14'0 0.0
2017-Nov-16 21:58N 60°24' E 005°14'0 0.0
2017-Nov-16 21:28N 60°24' E 005°14'0 0.0
2017-Nov-16 20:57N 60°24' E 005°14'0 0.0
2017-Nov-16 20:30N 60°24' E 005°14'0 0.0
2017-Nov-16 20:00N 60°24' E 005°14'0 0.0
2017-Nov-16 19:30N 60°24' E 005°14'0 0.0
2017-Nov-16 19:00N 60°24' E 005°14'0 0.0
2017-Nov-16 18:29N 60°24' E 005°14'0 0.0
2017-Nov-16 17:59N 60°24' E 005°14'0 0.0
2017-Nov-16 17:29N 60°24' E 005°14'0 0.0
2017-Nov-16 16:59N 60°24' E 005°14'0 0.0
2017-Nov-16 16:29N 60°24' E 005°14'0 0.0
2017-Nov-16 15:58N 60°24' E 005°14'0 0.0
2017-Nov-16 15:28N 60°24' E 005°14'0 0.0
2017-Nov-16 14:58N 60°24' E 005°14'0 0.0
2017-Nov-16 14:30N 60°24' E 005°14'0 0.4
2017-Nov-16 14:00N 60°24' E 005°14'2 3.5
2017-Nov-16 13:30N 60°23' E 005°11'611.9
2017-Nov-16 13:00N 60°17' E 005°11'612.7
2017-Nov-16 12:30N 60°11' E 005°10'510.6
2017-Nov-16 12:00N 60°08' E 005°00'612.3
2017-Nov-16 11:30N 60°03' E 004°56'713.3
2017-Nov-16 11:00N 59°56' E 004°53'713.4
2017-Nov-16 10:30N 59°50' E 004°51'713.5
2017-Nov-16 10:00N 59°43' E 004°49'713.5
2017-Nov-16 09:30N 59°36' E 004°47'713.7
2017-Nov-16 09:00N 59°30' E 004°44'47713.1
2017-Nov-14 20:42N 51°39' E 002°25'513.4
2017-Nov-14 20:19N 51°35' E 002°20'513.2
2017-Nov-14 19:57N 51°32' E 002°15'612.8
2017-Nov-14 19:30N 51°27' E 002°09'612.6
2017-Nov-14 19:00N 51°23' E 002°02'612.3
2017-Nov-14 18:30N 51°18' E 001°56'611.6
2017-Nov-14 18:00N 51°14' E 001°50'611.2
2017-Nov-14 17:30N 51°09' E 001°44'510.8
2017-Nov-14 17:00N 51°05' E 001°39'510.9
2017-Nov-14 16:30N 51°01' E 001°33'611.1
2017-Nov-14 16:00N 50°57' E 001°26'611.1
2017-Nov-14 15:29N 50°52' E 001°23'7112.2
2017-Nov-14 09:37N 49°55' E 000°17'112.7
2017-Nov-14 09:30N 49°53' E 000°15'612.9
2017-Nov-14 09:00N 49°49' E 000°09'713.3
2017-Nov-14 08:30N 49°43' E 000°03'713.5
2017-Nov-14 08:00N 49°37' W 000°03'713.2
2017-Nov-14 07:30N 49°31' E 000°00'5 9.9
2017-Nov-14 07:00N 49°29' E 000°07'0 0.0
2017-Nov-14 06:30N 49°29' E 000°07'0 0.0
2017-Nov-14 06:00N 49°29' E 000°07'0 0.0
2017-Nov-14 05:30N 49°29' E 000°07'0 0.0
2017-Nov-14 05:00N 49°29' E 000°07'0 0.0
2017-Nov-14 04:30N 49°29' E 000°07'0 0.0
2017-Nov-14 04:00N 49°29' E 000°07'0 0.0
2017-Nov-14 03:30N 49°29' E 000°07'0 0.1
2017-Nov-14 03:00N 49°29' E 000°07'2 3.2
2017-Nov-14 02:30N 49°29' E 000°05'4 7.8
2017-Nov-14 02:00N 49°28' W 000°01'4 8.2
2017-Nov-14 01:30N 49°26' E 000°05'713.0
2017-Nov-14 01:00N 49°26' E 000°15'713.6
2017-Nov-14 00:31N 49°27' E 000°25'5 9.4
2017-Nov-14 00:00N 49°28' E 000°32'0 0.1
2017-Nov-13 23:30N 49°28' E 000°32'0 0.0
2017-Nov-13 23:00N 49°28' E 000°32'0 0.0
2017-Nov-13 22:29N 49°28' E 000°32'0 0.0
2017-Nov-13 21:59N 49°28' E 000°32'0 0.0
2017-Nov-13 02:00N 49°28' E 000°32'0 0.0
2017-Nov-13 01:29N 49°28' E 000°32'0 0.0
2017-Nov-13 00:59N 49°28' E 000°32'0 0.0
2017-Nov-13 00:29N 49°28' E 000°32'0 0.0
2017-Nov-12 23:59N 49°28' E 000°32'0 0.0
2017-Nov-12 23:28N 49°28' E 000°32'0 0.0
2017-Nov-12 22:58N 49°28' E 000°32'0 0.0
2017-Nov-12 22:28N 49°28' E 000°32'0 0.0
2017-Nov-12 21:58N 49°28' E 000°32'0 0.0
2017-Nov-12 21:28N 49°28' E 000°32'0 0.0
2017-Nov-12 21:00N 49°28' E 000°32'0 0.0
2017-Nov-12 20:30N 49°28' E 000°32'2 4.2
2017-Nov-12 20:00N 49°29' E 000°29'510.2
2017-Nov-12 19:30N 49°27' E 000°23'612.1
2017-Nov-12 19:00N 49°26' E 000°13'713.2
2017-Nov-12 18:30N 49°27' E 000°03'612.0
2017-Nov-12 18:00N 49°28' W 000°05'2 4.6
2017-Nov-12 17:30N 49°26' W 000°08'0 0.6
2017-Nov-12 17:00N 49°26' W 000°08'0 0.8
2017-Nov-12 16:30N 49°26' W 000°07'2 3.3
2017-Nov-12 16:00N 49°24' W 000°08'2 3.2
2017-Nov-12 15:30N 49°26' W 000°07'0 0.2
2017-Nov-12 15:00N 49°26' W 000°07'2 3.2
2017-Nov-12 14:30N 49°24' W 000°08'2 4.1
2017-Nov-12 14:00N 49°26' W 000°07'2 3.4
2017-Nov-12 13:30N 49°28' W 000°06'0 0.3
2017-Nov-12 13:00N 49°28' W 000°06'0 0.2
2017-Nov-12 12:28N 49°28' W 000°06'0 0.3
2017-Nov-12 11:58N 49°28' W 000°06'0 0.1
2017-Nov-12 11:30N 49°28' W 000°06'0 0.0
2017-Nov-12 11:00N 49°28' W 000°06'0 0.0
2017-Nov-12 10:30N 49°28' W 000°06'0 0.0
2017-Nov-12 10:00N 49°28' W 000°06'0 0.2
2017-Nov-12 09:30N 49°28' W 000°06'5 9.3
2017-Nov-12 09:00N 49°33' W 000°08'714.1
2017-Nov-12 08:30N 49°39' W 000°03'714.0
2017-Nov-12 08:00N 49°45' E 000°03'713.9
2017-Nov-12 07:30N 49°50' E 000°10'714.0
2017-Nov-12 07:00N 49°56' E 000°17'4112.5
2017-Nov-12 03:44N 50°31' E 000°50'414.1
2017-Nov-12 03:27N 50°34' E 000°47'511.7
2017-Nov-12 03:00N 50°39' E 000°48'713.9
2017-Nov-12 02:30N 50°44' E 000°57'1414.8
2017-Nov-12 01:34N 50°53' E 001°14'115.5
2017-Nov-12 01:30N 50°53' E 001°15'816.3
2017-Nov-12 01:00N 50°59' E 001°24'816.6
2017-Nov-12 00:30N 51°05' E 001°33'816.5
2017-Nov-12 00:00N 51°11' E 001°42'815.5
2017-Nov-11 23:30N 51°17' E 001°49'714.7
2017-Nov-11 23:01N 51°24' E 001°55'714.2
2017-Nov-11 22:30N 51°29' E 002°03'713.7
2017-Nov-11 22:00N 51°34' E 002°10'713.5
2017-Nov-11 21:28N 51°39' E 002°18'42613.4
2017-Nov-10 13:42N 58°34' E 005°13'313.4
2017-Nov-10 13:30N 58°36' E 005°14'713.4
2017-Nov-10 13:00N 58°43' E 005°17'510.2
2017-Nov-10 12:30N 58°48' E 005°19'611.1
2017-Nov-10 12:00N 58°51' E 005°28'612.3
2017-Nov-10 11:30N 58°57' E 005°33'713.1
2017-Nov-10 11:00N 59°03' E 005°35'612.2
2017-Nov-10 10:30N 59°02' E 005°46'4 7.6
2017-Nov-10 09:58N 58°58' E 005°46'0 0.0
2017-Nov-10 09:28N 58°58' E 005°46'0 0.0
2017-Nov-10 08:58N 58°58' E 005°46'0 0.0
2017-Nov-10 08:28N 58°58' E 005°46'3 6.7
2017-Nov-10 08:00N 58°55' E 005°46'2 4.4
2017-Nov-10 07:30N 58°53' E 005°45'0 0.0
2017-Nov-10 06:59N 58°53' E 005°45'0 0.0
2017-Nov-10 06:29N 58°53' E 005°45'0 0.0
2017-Nov-10 05:59N 58°53' E 005°45'0 0.0
2017-Nov-10 05:29N 58°53' E 005°45'0 0.0
2017-Nov-10 04:59N 58°53' E 005°45'0 0.0
2017-Nov-10 04:28N 58°53' E 005°45'0 0.0
2017-Nov-10 03:58N 58°53' E 005°45'0 0.0
2017-Nov-10 03:28N 58°53' E 005°45'0 0.0
2017-Nov-10 02:58N 58°53' E 005°45'0 0.0
2017-Nov-10 02:31N 58°53' E 005°45'0 0.0
2017-Nov-10 02:00N 58°53' E 005°45'0 0.0
2017-Nov-10 01:30N 58°53' E 005°45'0 0.0
2017-Nov-10 01:00N 58°53' E 005°45'  

Dump ship's entire track history